You are not logged in, Click here to log in
機場資訊:RCFN Welcome to Taiwan Airways 台灣虛擬航空
ICAO: RCFN Country: 臺灣臺東縣臺東市
Latitude: 22.7571 Longitude: 121.106
Total Arrivals: 34 Total Departures: 45
Latest Arrival: FS02 (RCFN-RCFN)ALAN. LIU Latest Departure: FS02 (RCFN-RCFN)ALAN. LIU
Scenery:
METAR : RCFN 170500Z 07010KT 350V110 9999 FEW030 29/20 Q1013 NOSIG RMK A2992

臺東機場TTT